Archival Weather

Republic

Farmingdale, New York (KFRG)

Report from: Wednesday, February 14, 2024 10:53 AM EST
Current time: Friday, June 14, 2024 7:28 AM EDT

Current weather – Weather history – Daily summaries
Weather forecast

Temperature-0.6°C (30.9°F)
Wind chill-6.8°C (19.8°F)
Dew point-10.6°C (12.9°F)
Winds 14 kts (7.2 m/s, 16.1 mph) West-Northwest (300°)
Wind gusts 23 kts (11.8 m/s, 26.5 mph)
Peak wind 31 kts (15.9 m/s, 35.7 mph) West (280°) at 15:07
Visibility10 mi. (16.1 km)
Clouds Sky clear
Altimeter30.01 in.Hg (1016 mB)
Relative humidity47 %
Density altitude-1,969 ft. (-600 m)
Sea-level pressure101.6 kPa (1016 mB, 30.01 in.Hg)
Remarks Automated weather observing station without precipitation discriminator
Flight conditions Visual Meteorological Conditions
Raw dataKFRG 141553Z 30014G23KT 10SM CLR M01/M11 A3001 RMK AO1 PK WND 28031/1507 SLP164 T10061106
An error has occurred. This application may no longer respond until reloaded. Reload 🗙